Terminal Aerodrome Forecast
Issued by NWS

Home | Current Version | Previous Version | Text Only | Print | Product List | Glossary On
Versions: 1 2 3 4 5 6 7 8 9 10 11 12 13 14 15 16 17 18 19
000
FTUS44 KMAF 172300
TAFHOB
TAF
KHOB 172323Z 1800/1824 24020G25KT P6SM FEW250
     FM180100 25009KT P6SM FEW250
     FM182000 27008KT P6SM OVC150=

USA.gov is the U.S. government's official web portal to all federal, state and local government web resources and services.